createdAt,value
2023-05-18T00:07:03.360Z,127.15
2023-05-18T00:14:04.958Z,148.60
2023-05-18T00:21:06.626Z,146.50
2023-05-18T00:28:08.324Z,103.65
2023-05-18T00:35:10.683Z,103.43
2023-05-18T00:42:12.278Z,120.72
2023-05-18T00:49:13.879Z,132.98
2023-05-18T00:56:15.618Z,144.00
2023-05-18T01:03:20.127Z,137.95
2023-05-18T01:10:23.520Z,115.20
2023-05-18T01:17:33.389Z,129.52
2023-05-18T01:24:42.796Z,125.60
2023-05-18T01:31:44.454Z,146.65
2023-05-18T01:38:46.327Z,112.78
2023-05-18T01:45:49.164Z,125.85
2023-05-18T01:53:29.204Z,121.38
2023-05-18T02:00:30.839Z,106.43
2023-05-18T02:07:34.435Z,110.55
2023-05-18T02:14:36.244Z,113.07
2023-05-18T02:21:37.967Z,118.85
2023-05-18T02:28:39.975Z,120.82
2023-05-18T02:35:41.632Z,138.95
2023-05-18T02:42:43.317Z,123.28
2023-05-18T02:49:45.941Z,126.85
2023-05-18T02:56:47.651Z,119.95
2023-05-18T03:04:03.145Z,154.05
2023-05-18T03:11:05.819Z,156.18
2023-05-18T03:18:07.700Z,155.60
2023-05-18T03:25:09.533Z,137.95
2023-05-18T03:32:11.805Z,127.95
2023-05-18T03:39:14.049Z,106.57
2023-05-18T03:46:15.949Z,113.85
2023-05-18T03:53:21.451Z,119.88
2023-05-18T04:00:23.240Z,120.93
2023-05-18T04:07:24.882Z,101.38
2023-05-18T04:14:28.604Z,105.03
2023-05-18T04:21:35.941Z,96.38
2023-05-18T04:28:37.702Z,59.95
2023-05-18T04:35:39.507Z,63.85
2023-05-18T04:42:45.357Z,73.70
2023-05-18T04:49:49.119Z,75.93
2023-05-18T04:56:51.640Z,66.60
2023-05-18T05:03:53.667Z,77.55
2023-05-18T05:10:55.657Z,98.63
2023-05-18T05:17:58.406Z,54.83
2023-05-18T05:25:00.432Z,53.95
2023-05-18T17:41:11.686Z,4.37
2023-05-18T17:48:13.377Z,2.72
2023-05-18T17:55:15.140Z,3.20
2023-05-18T18:02:16.778Z,3.30
2023-05-18T18:09:18.361Z,2.72
2023-05-18T18:16:20.064Z,2.42
2023-05-18T18:23:21.970Z,6.55
2023-05-18T18:30:23.668Z,2.88
2023-05-18T18:37:25.766Z,2.58
2023-05-18T18:44:27.405Z,2.95
2023-05-18T18:51:28.961Z,2.90
2023-05-18T18:58:30.557Z,3.30
2023-05-18T19:05:32.364Z,4.90
2023-05-18T19:12:34.254Z,4.13
2023-05-18T19:19:37.357Z,3.78
2023-05-18T19:26:39.029Z,3.35
2023-05-18T19:33:40.733Z,5.00
2023-05-18T19:40:42.297Z,3.58
2023-05-18T19:47:43.891Z,3.50
2023-05-18T19:54:45.770Z,3.67
2023-05-18T20:01:47.463Z,3.50
2023-05-18T20:08:49.080Z,3.60
2023-05-18T20:15:50.761Z,3.72
2023-05-18T20:22:52.444Z,2.65
2023-05-18T20:29:55.927Z,2.65
2023-05-18T20:36:57.569Z,2.33
2023-05-18T20:44:01.862Z,2.38
2023-05-18T20:51:03.611Z,2.05
2023-05-18T20:58:05.241Z,2.40
2023-05-18T21:05:07.121Z,2.60
2023-05-18T21:12:08.844Z,2.30
2023-05-18T21:19:10.593Z,2.40
2023-05-18T21:26:12.219Z,1.90
2023-05-18T21:33:13.958Z,2.75
2023-05-18T21:40:15.675Z,2.30
2023-05-18T21:47:17.293Z,1.90
2023-05-18T21:54:18.880Z,2.00
2023-05-18T22:01:21.406Z,2.20
2023-05-18T22:08:23.349Z,2.55
2023-05-18T22:15:24.985Z,2.70
2023-05-18T22:22:30.332Z,2.30
2023-05-18T22:29:32.341Z,3.17
2023-05-18T22:36:35.227Z,2.45
2023-05-18T22:43:37.011Z,2.72
2023-05-18T22:50:38.601Z,2.10
2023-05-18T22:57:43.638Z,2.20
2023-05-18T23:04:45.326Z,2.25
2023-05-18T23:11:48.274Z,2.15
2023-05-18T23:18:50.563Z,1.80
2023-05-18T23:25:52.497Z,1.85
2023-05-18T23:32:54.605Z,2.03
2023-05-18T23:39:56.402Z,2.10
2023-05-18T23:46:58.358Z,1.98
2023-05-18T23:53:59.935Z,2.00
